Time;durP1;ratioP1;P1;durP2;ratioP2;P2;SDS_P1;SDS_P2;PMS_P1;PMS_P2;Temp;Humidity;BMP_temperature;BMP_pressure;BME280_temperature;BME280_humidity;BME280_pressure;Samples;Min_cycle;Max_cycle;Signal;HPM_P1;HPM_P2
2020/10/02 00:01:19;;;;;;;2.34;1.80;;;;;;;20.02;65.51;98933.22;;;;-61
2020/10/02 00:04:19;;;;;;;2.73;1.85;;;;;;;20.02;65.47;98931.94;;;;-61
2020/10/02 00:07:20;;;;;;;2.25;2.05;;;;;;;20.00;65.48;98922.44;;;;-61
2020/10/02 00:10:20;;;;;;;2.95;1.89;;;;;;;20.00;65.51;98913.91;;;;-61
2020/10/02 00:13:19;;;;;;;2.12;1.92;;;;;;;19.99;65.53;98913.77;;;;-61
2020/10/02 00:16:19;;;;;;;2.09;1.89;;;;;;;19.99;65.52;98911.02;;;;-61
2020/10/02 00:19:19;;;;;;;1.97;1.83;;;;;;;19.98;65.56;98904.92;;;;-61
2020/10/02 00:22:19;;;;;;;2.63;2.00;;;;;;;19.97;65.52;98903.23;;;;-61
2020/10/02 00:25:19;;;;;;;1.87;1.72;;;;;;;19.98;65.51;98900.62;;;;-61
2020/10/02 00:28:19;;;;;;;2.49;1.92;;;;;;;19.96;65.50;98896.13;;;;-61
2020/10/02 00:31:20;;;;;;;2.08;1.75;;;;;;;19.96;65.55;98892.30;;;;-61
2020/10/02 00:34:20;;;;;;;3.34;1.97;;;;;;;19.95;65.54;98884.09;;;;-60
2020/10/02 00:37:19;;;;;;;1.86;1.76;;;;;;;19.95;65.55;98877.61;;;;-61
2020/10/02 00:40:19;;;;;;;2.51;1.99;;;;;;;19.94;65.57;98875.25;;;;-61
2020/10/02 00:43:19;;;;;;;2.05;1.82;;;;;;;19.94;65.52;98880.86;;;;-61
2020/10/02 00:46:20;;;;;;;1.99;1.71;;;;;;;19.93;65.57;98877.80;;;;-60
2020/10/02 00:49:19;;;;;;;1.98;1.84;;;;;;;19.93;65.52;98881.53;;;;-60
2020/10/02 00:52:19;;;;;;;1.90;1.80;;;;;;;19.92;65.56;98874.80;;;;-61
2020/10/02 00:55:19;;;;;;;2.23;1.90;;;;;;;19.92;65.54;98868.72;;;;-61
2020/10/02 00:58:19;;;;;;;1.81;1.71;;;;;;;19.92;65.51;98867.42;;;;-60
2020/10/02 01:01:19;;;;;;;2.31;1.81;;;;;;;19.92;65.57;98858.56;;;;-61
2020/10/02 01:04:19;;;;;;;2.17;1.80;;;;;;;19.91;65.59;98850.37;;;;-63
2020/10/02 01:07:19;;;;;;;1.80;1.70;;;;;;;19.90;65.56;98844.38;;;;-61
2020/10/02 01:10:19;;;;;;;2.09;1.87;;;;;;;19.90;65.55;98845.45;;;;-61
2020/10/02 01:13:19;;;;;;;1.82;1.72;;;;;;;19.89;65.57;98838.86;;;;-62
2020/10/02 01:16:19;;;;;;;1.90;1.80;;;;;;;19.89;65.56;98835.84;;;;-61
2020/10/02 01:19:19;;;;;;;1.80;1.70;;;;;;;19.90;65.56;98834.87;;;;-61
2020/10/02 01:22:19;;;;;;;2.18;1.77;;;;;;;19.89;65.56;98826.36;;;;-61
2020/10/02 01:25:19;;;;;;;1.99;1.84;;;;;;;19.89;65.53;98816.00;;;;-61
2020/10/02 01:28:19;;;;;;;1.85;1.70;;;;;;;19.89;65.55;98803.34;;;;-61
2020/10/02 01:31:19;;;;;;;2.10;1.90;;;;;;;19.88;65.56;98802.15;;;;-59
2020/10/02 01:34:19;;;;;;;1.84;1.71;;;;;;;19.87;65.56;98794.84;;;;-61
2020/10/02 01:37:19;;;;;;;2.09;1.89;;;;;;;19.87;65.60;98789.71;;;;-61
2020/10/02 01:40:19;;;;;;;1.85;1.72;;;;;;;19.88;65.53;98777.69;;;;-62
2020/10/02 01:43:19;;;;;;;1.99;1.85;;;;;;;19.87;65.57;98768.67;;;;-61
2020/10/02 01:46:20;;;;;;;2.08;1.87;;;;;;;19.87;65.56;98765.44;;;;-61
2020/10/02 01:49:19;;;;;;;1.80;1.70;;;;;;;19.87;65.53;98756.98;;;;-61
2020/10/02 01:52:19;;;;;;;2.03;1.77;;;;;;;19.86;65.56;98752.20;;;;-60
2020/10/02 01:55:20;;;;;;;1.87;1.70;;;;;;;19.86;65.56;98748.53;;;;-61
2020/10/02 01:58:19;;;;;;;2.10;1.90;;;;;;;19.85;65.58;98742.45;;;;-61
2020/10/02 02:01:19;;;;;;;1.90;1.80;;;;;;;19.86;65.56;98739.92;;;;-61
2020/10/02 02:04:19;;;;;;;1.80;1.70;;;;;;;19.85;65.52;98737.73;;;;-61
2020/10/02 02:07:19;;;;;;;1.82;1.70;;;;;;;19.85;65.48;98733.83;;;;-61
2020/10/02 02:10:19;;;;;;;1.90;1.80;;;;;;;19.85;65.52;98728.00;;;;-61
2020/10/02 02:13:19;;;;;;;1.91;1.79;;;;;;;19.84;65.47;98715.52;;;;-61
2020/10/02 02:16:19;;;;;;;1.83;1.70;;;;;;;19.84;65.53;98714.85;;;;-61
2020/10/02 02:19:19;;;;;;;1.93;1.79;;;;;;;19.84;65.54;98708.27;;;;-61
2020/10/02 02:22:19;;;;;;;1.72;1.58;;;;;;;19.84;65.54;98707.30;;;;-61
2020/10/02 02:25:19;;;;;;;1.67;1.57;;;;;;;19.83;65.51;98701.20;;;;-63
2020/10/02 02:28:19;;;;;;;1.96;1.81;;;;;;;19.83;65.55;98698.37;;;;-61
2020/10/02 02:31:19;;;;;;;1.83;1.73;;;;;;;19.84;65.52;98696.08;;;;-60
2020/10/02 02:34:19;;;;;;;2.00;1.80;;;;;;;19.83;65.52;98691.05;;;;-63
2020/10/02 02:37:19;;;;;;;1.96;1.81;;;;;;;19.82;65.55;98684.91;;;;-61
2020/10/02 02:40:19;;;;;;;1.67;1.57;;;;;;;19.82;65.58;98681.66;;;;-61
2020/10/02 02:43:19;;;;;;;1.83;1.73;;;;;;;19.81;65.54;98674.84;;;;-61
2020/10/02 02:46:19;;;;;;;1.61;1.51;;;;;;;19.82;65.53;98674.67;;;;-61
2020/10/02 02:49:19;;;;;;;1.70;1.60;;;;;;;19.81;65.54;98670.64;;;;-61
2020/10/02 02:52:19;;;;;;;1.91;1.77;;;;;;;19.81;65.55;98670.71;;;;-61
2020/10/02 02:55:19;;;;;;;1.71;1.61;;;;;;;19.80;65.56;98665.55;;;;-60
2020/10/02 02:58:19;;;;;;;1.74;1.64;;;;;;;19.80;65.53;98666.59;;;;-61
2020/10/02 03:01:19;;;;;;;1.87;1.77;;;;;;;19.80;65.55;98669.10;;;;-60
2020/10/02 03:04:19;;;;;;;1.76;1.66;;;;;;;19.80;65.54;98662.45;;;;-60
2020/10/02 03:07:19;;;;;;;2.56;1.76;;;;;;;19.80;65.55;98658.30;;;;-60
2020/10/02 03:10:19;;;;;;;1.75;1.63;;;;;;;19.79;65.51;98647.42;;;;-61
2020/10/02 03:13:19;;;;;;;1.83;1.73;;;;;;;19.79;65.54;98635.65;;;;-62
2020/10/02 03:16:19;;;;;;;1.79;1.69;;;;;;;19.78;65.47;98630.70;;;;-61
2020/10/02 03:19:19;;;;;;;1.72;1.62;;;;;;;19.78;65.50;98632.25;;;;-60
2020/10/02 03:22:19;;;;;;;1.86;1.69;;;;;;;19.79;65.50;98630.94;;;;-61
2020/10/02 03:25:19;;;;;;;1.79;1.69;;;;;;;19.77;65.52;98628.59;;;;-61
2020/10/02 03:28:19;;;;;;;1.81;1.71;;;;;;;19.77;65.50;98621.46;;;;-61
2020/10/02 03:31:19;;;;;;;1.70;1.60;;;;;;;19.77;65.51;98618.70;;;;-62
2020/10/02 03:34:19;;;;;;;1.62;1.47;;;;;;;19.77;65.53;98612.62;;;;-61
2020/10/02 03:37:19;;;;;;;1.53;1.43;;;;;;;19.77;65.51;98608.55;;;;-61
2020/10/02 03:40:19;;;;;;;1.60;1.50;;;;;;;19.77;65.52;98609.34;;;;-60
2020/10/02 03:43:19;;;;;;;1.70;1.60;;;;;;;19.76;65.47;98612.66;;;;-61
2020/10/02 03:46:19;;;;;;;1.65;1.55;;;;;;;19.75;65.52;98610.28;;;;-61
2020/10/02 03:49:19;;;;;;;1.70;1.60;;;;;;;19.75;65.51;98608.34;;;;-61
2020/10/02 03:52:19;;;;;;;1.68;1.58;;;;;;;19.75;65.52;98601.59;;;;-61
2020/10/02 03:55:19;;;;;;;1.63;1.53;;;;;;;19.75;65.57;98603.61;;;;-61
2020/10/02 03:58:19;;;;;;;1.80;1.70;;;;;;;19.75;65.51;98598.76;;;;-61
2020/10/02 04:01:19;;;;;;;1.62;1.52;;;;;;;19.75;65.48;98589.33;;;;-61
2020/10/02 04:04:19;;;;;;;1.75;1.65;;;;;;;19.75;65.52;98600.13;;;;-60
2020/10/02 04:07:19;;;;;;;1.66;1.55;;;;;;;19.75;65.52;98593.30;;;;-61
2020/10/02 04:10:19;;;;;;;1.64;1.54;;;;;;;19.74;65.54;98587.89;;;;-60
2020/10/02 04:13:19;;;;;;;1.87;1.77;;;;;;;19.73;65.54;98587.09;;;;-61
2020/10/02 04:16:19;;;;;;;1.81;1.70;;;;;;;19.74;65.53;98586.21;;;;-61
2020/10/02 04:19:19;;;;;;;1.67;1.57;;;;;;;19.73;65.54;98581.98;;;;-60
2020/10/02 04:22:19;;;;;;;1.70;1.60;;;;;;;19.73;65.55;98582.72;;;;-61
2020/10/02 04:25:19;;;;;;;1.76;1.60;;;;;;;19.72;65.55;98583.25;;;;-61
2020/10/02 04:28:19;;;;;;;1.61;1.51;;;;;;;19.73;65.50;98580.09;;;;-61
2020/10/02 04:31:19;;;;;;;1.77;1.67;;;;;;;19.73;65.56;98575.08;;;;-61
2020/10/02 04:34:19;;;;;;;1.61;1.51;;;;;;;19.73;65.49;98567.37;;;;-61
2020/10/02 04:37:19;;;;;;;1.60;1.50;;;;;;;19.72;65.48;98563.33;;;;-61
2020/10/02 04:40:20;;;;;;;1.90;1.80;;;;;;;19.72;65.54;98562.59;;;;-61
2020/10/02 04:43:19;;;;;;;1.83;1.73;;;;;;;19.72;65.50;98565.67;;;;-61
2020/10/02 04:46:19;;;;;;;1.70;1.60;;;;;;;19.72;65.50;98567.73;;;;-61
2020/10/02 04:49:19;;;;;;;1.71;1.59;;;;;;;19.72;65.56;98565.04;;;;-61
2020/10/02 04:54:19;;;;;;;1.59;1.49;;;;;;;19.70;65.51;98548.23;;;;-62
2020/10/02 04:57:19;;;;;;;1.70;1.60;;;;;;;19.71;65.50;98545.64;;;;-61
2020/10/02 05:00:19;;;;;;;1.70;1.60;;;;;;;19.72;65.54;98548.72;;;;-61
2020/10/02 05:03:19;;;;;;;1.91;1.66;;;;;;;19.71;65.54;98544.81;;;;-61
2020/10/02 05:06:19;;;;;;;1.89;1.75;;;;;;;19.71;65.50;98543.34;;;;-60
2020/10/02 05:09:19;;;;;;;1.60;1.50;;;;;;;19.71;65.52;98537.41;;;;-61
2020/10/02 05:12:19;;;;;;;1.97;1.57;;;;;;;19.72;65.39;98530.98;;;;-61
2020/10/02 05:15:19;;;;;;;1.77;1.67;;;;;;;19.72;65.50;98521.33;;;;-48
2020/10/02 05:18:19;;;;;;;1.63;1.50;;;;;;;19.72;65.45;98516.42;;;;-48
2020/10/02 05:22:19;;;;;;;1.70;1.60;;;;;;;19.74;65.44;98493.78;;;;-48
2020/10/02 05:25:19;;;;;;;1.70;1.60;;;;;;;19.75;65.39;98477.58;;;;-48
2020/10/02 05:28:19;;;;;;;1.76;1.66;;;;;;;19.77;65.33;98465.98;;;;-48
2020/10/02 05:32:19;;;;;;;2.07;1.63;;;;;;;19.79;65.32;98458.29;;;;-48
2020/10/02 05:35:20;;;;;;;1.69;1.59;;;;;;;19.82;65.23;98455.97;;;;-62
2020/10/02 05:38:19;;;;;;;1.60;1.50;;;;;;;19.84;65.22;98456.22;;;;-61
2020/10/02 05:41:19;;;;;;;1.68;1.56;;;;;;;19.87;65.28;98447.20;;;;-61
2020/10/02 05:46:19;;;;;;;1.97;1.50;;;;;;;19.91;65.36;98457.33;;;;-61
2020/10/02 05:49:19;;;;;;;1.49;1.39;;;;;;;19.94;65.48;98452.68;;;;-60
2020/10/02 05:52:19;;;;;;;1.56;1.46;;;;;;;19.97;65.53;98444.71;;;;-61
2020/10/02 05:56:19;;;;;;;1.67;1.57;;;;;;;20.00;65.51;98432.19;;;;-60
2020/10/02 05:59:19;;;;;;;1.97;1.66;;;;;;;20.03;65.58;98432.77;;;;-62
2020/10/02 06:05:20;;;;;;;1.51;1.40;;;;;;;20.08;65.60;98424.08;;;;-61
2020/10/02 06:08:20;;;;;;;1.55;1.45;;;;;;;20.10;65.72;98417.52;;;;-61
2020/10/02 06:11:19;;;;;;;1.49;1.39;;;;;;;20.13;65.67;98421.66;;;;-61
2020/10/02 06:14:20;;;;;;;1.60;1.50;;;;;;;20.14;65.73;98407.31;;;;-61
2020/10/02 06:17:20;;;;;;;1.41;1.31;;;;;;;20.16;65.70;98396.12;;;;-61
2020/10/02 06:20:20;;;;;;;1.52;1.42;;;;;;;20.18;65.67;98388.11;;;;-59
2020/10/02 06:23:20;;;;;;;1.57;1.47;;;;;;;20.18;65.71;98375.80;;;;-59
2020/10/02 06:26:20;;;;;;;1.65;1.55;;;;;;;20.19;65.71;98369.61;;;;-59
2020/10/02 06:29:19;;;;;;;1.50;1.40;;;;;;;20.20;65.72;98367.23;;;;-59
2020/10/02 06:32:19;;;;;;;1.48;1.38;;;;;;;20.21;65.69;98356.94;;;;-59
2020/10/02 06:35:20;;;;;;;2.03;1.60;;;;;;;20.22;65.65;98346.52;;;;-60
2020/10/02 06:38:20;;;;;;;1.65;1.55;;;;;;;20.22;65.60;98352.19;;;;-61
2020/10/02 06:41:19;;;;;;;1.57;1.47;;;;;;;20.23;65.58;98344.12;;;;-59
2020/10/02 06:44:20;;;;;;;1.57;1.47;;;;;;;20.23;65.58;98345.02;;;;-60
2020/10/02 06:47:20;;;;;;;1.50;1.40;;;;;;;20.23;65.50;98339.87;;;;-60
2020/10/02 06:50:20;;;;;;;1.70;1.60;;;;;;;20.24;65.53;98341.58;;;;-59
2020/10/02 06:53:19;;;;;;;1.58;1.48;;;;;;;20.24;65.51;98348.50;;;;-59
2020/10/02 06:56:20;;;;;;;1.60;1.50;;;;;;;20.23;65.41;98347.45;;;;-59
2020/10/02 06:59:19;;;;;;;1.50;1.40;;;;;;;20.23;65.40;98352.01;;;;-59
2020/10/02 07:02:20;;;;;;;1.53;1.43;;;;;;;20.24;65.42;98352.05;;;;-61
2020/10/02 07:05:20;;;;;;;1.60;1.50;;;;;;;20.24;65.38;98359.61;;;;-59
2020/10/02 07:08:19;;;;;;;2.81;1.46;;;;;;;20.25;65.44;98357.48;;;;-56
2020/10/02 07:11:23;;;;;;;4.04;1.52;;;;;;;20.27;65.65;98352.69;;;;-55
2020/10/02 07:14:20;;;;;;;1.58;1.41;;;;;;;20.29;66.00;98344.56;;;;-60
2020/10/02 07:17:20;;;;;;;6.63;1.45;;;;;;;20.33;66.27;98344.06;;;;-62
2020/10/02 07:20:20;;;;;;;2.52;1.54;;;;;;;20.35;65.93;98334.80;;;;-56
2020/10/02 07:23:20;;;;;;;3.36;1.41;;;;;;;20.38;65.92;98331.21;;;;-55
2020/10/02 07:26:19;;;;;;;1.46;1.36;;;;;;;20.43;66.08;98322.44;;;;-57
2020/10/02 07:29:20;;;;;;;2.37;1.48;;;;;;;20.46;65.89;98313.30;;;;-54
2020/10/02 07:32:20;;;;;;;1.44;1.34;;;;;;;20.49;65.48;98311.02;;;;-55
2020/10/02 07:35:20;;;;;;;1.87;1.63;;;;;;;20.53;66.08;98311.53;;;;-54
2020/10/02 07:38:20;;;;;;;1.74;1.41;;;;;;;20.56;66.12;98301.98;;;;-57
2020/10/02 07:41:22;;;;;;;1.98;1.35;;;;;;;20.59;65.86;98298.69;;;;-54
2020/10/02 07:44:19;;;;;;;1.52;1.42;;;;;;;20.63;66.02;98291.14;;;;-53
2020/10/02 07:47:19;;;;;;;1.65;1.55;;;;;;;20.68;66.15;98279.09;;;;-55
2020/10/02 07:50:19;;;;;;;1.94;1.52;;;;;;;20.69;65.69;98270.02;;;;-56
2020/10/02 07:53:19;;;;;;;1.51;1.41;;;;;;;20.71;65.72;98265.64;;;;-56
2020/10/02 07:56:19;;;;;;;1.73;1.40;;;;;;;20.73;65.58;98268.27;;;;-57
2020/10/02 07:59:20;;;;;;;1.65;1.50;;;;;;;20.74;65.39;98264.80;;;;-52
2020/10/02 08:02:20;;;;;;;2.68;1.38;;;;;;;20.75;65.39;98255.08;;;;-49
2020/10/02 08:05:20;;;;;;;5.78;1.58;;;;;;;20.78;65.22;98251.57;;;;-51
2020/10/02 08:08:20;;;;;;;5.40;1.48;;;;;;;20.80;65.32;98248.99;;;;-49
2020/10/02 08:11:20;;;;;;;4.99;1.71;;;;;;;20.80;64.91;98242.38;;;;-49
2020/10/02 08:14:20;;;;;;;2.11;1.60;;;;;;;20.81;64.60;98242.17;;;;-51
2020/10/02 08:17:19;;;;;;;4.14;1.73;;;;;;;20.83;64.38;98230.15;;;;-50
2020/10/02 08:20:19;;;;;;;4.01;1.60;;;;;;;20.85;64.92;98223.66;;;;-49
2020/10/02 08:23:19;;;;;;;4.85;1.68;;;;;;;20.84;64.91;98224.41;;;;-49
2020/10/02 08:26:19;;;;;;;1.85;1.70;;;;;;;20.85;65.07;98224.54;;;;-49
2020/10/02 08:29:19;;;;;;;3.61;1.71;;;;;;;20.85;64.79;98229.49;;;;-48
2020/10/02 08:32:19;;;;;;;1.99;1.64;;;;;;;20.86;64.91;98223.68;;;;-50
2020/10/02 08:35:19;;;;;;;4.15;1.73;;;;;;;20.86;64.47;98221.91;;;;-57
2020/10/02 08:38:20;;;;;;;2.15;1.60;;;;;;;20.87;64.47;98228.61;;;;-55
2020/10/02 08:41:20;;;;;;;2.61;1.70;;;;;;;20.88;64.40;98226.63;;;;-56
2020/10/02 08:44:19;;;;;;;1.69;1.59;;;;;;;20.89;64.44;98218.53;;;;-49
2020/10/02 08:47:20;;;;;;;2.65;1.50;;;;;;;20.90;64.30;98217.95;;;;-53
2020/10/02 08:50:19;;;;;;;3.37;1.67;;;;;;;20.90;64.09;98213.70;;;;-51
2020/10/02 08:53:20;;;;;;;2.14;1.67;;;;;;;20.92;64.33;98213.88;;;;-51
2020/10/02 08:56:19;;;;;;;3.50;1.62;;;;;;;20.92;64.30;98212.34;;;;-50
2020/10/02 08:59:19;;;;;;;2.95;1.81;;;;;;;20.92;64.09;98208.93;;;;-51
2020/10/02 09:02:19;;;;;;;3.48;1.69;;;;;;;20.92;64.41;98209.16;;;;-54
2020/10/02 09:05:19;;;;;;;3.25;1.69;;;;;;;20.93;64.29;98212.88;;;;-50
2020/10/02 09:08:19;;;;;;;2.27;1.57;;;;;;;20.92;64.04;98209.81;;;;-49
2020/10/02 09:11:20;;;;;;;3.17;1.76;;;;;;;20.94;64.36;98203.72;;;;-50
2020/10/02 09:14:19;;;;;;;2.86;1.61;;;;;;;20.95;64.42;98196.34;;;;-54
2020/10/02 09:17:19;;;;;;;1.89;1.60;;;;;;;20.96;64.49;98194.13;;;;-49
2020/10/02 09:20:19;;;;;;;2.34;1.70;;;;;;;20.96;64.50;98193.78;;;;-53
2020/10/02 09:23:19;;;;;;;3.19;1.70;;;;;;;20.97;64.57;98176.39;;;;-51
2020/10/02 09:26:19;;;;;;;3.93;1.65;;;;;;;20.97;64.48;98162.95;;;;-50
2020/10/02 09:29:20;;;;;;;3.16;1.64;;;;;;;20.98;64.52;98160.00;;;;-52
2020/10/02 09:32:19;;;;;;;3.33;1.79;;;;;;;20.97;64.53;98145.39;;;;-50
2020/10/02 09:35:19;;;;;;;3.99;1.76;;;;;;;20.97;64.25;98140.31;;;;-51
2020/10/02 09:38:19;;;;;;;7.40;1.80;;;;;;;20.96;64.44;98138.34;;;;-47
2020/10/02 09:41:19;;;;;;;5.40;1.78;;;;;;;20.96;64.45;98132.65;;;;-56
2020/10/02 09:44:19;;;;;;;5.23;1.60;;;;;;;20.96;64.45;98134.27;;;;-54
2020/10/02 09:47:20;;;;;;;2.53;1.69;;;;;;;20.97;64.51;98131.97;;;;-56
2020/10/02 09:50:19;;;;;;;4.13;1.69;;;;;;;20.97;64.61;98126.76;;;;-53
2020/10/02 09:53:19;;;;;;;6.60;1.69;;;;;;;20.97;64.60;98112.98;;;;-52
2020/10/02 09:56:19;;;;;;;6.75;1.74;;;;;;;20.97;64.64;98098.66;;;;-51
2020/10/02 09:59:19;;;;;;;4.67;1.64;;;;;;;20.97;64.60;98078.44;;;;-56
2020/10/02 10:02:20;;;;;;;2.27;1.66;;;;;;;20.97;64.62;98072.02;;;;-58
2020/10/02 10:05:20;;;;;;;2.38;1.57;;;;;;;20.98;64.63;98061.91;;;;-50
2020/10/02 10:08:19;;;;;;;4.60;1.53;;;;;;;20.97;64.59;98057.11;;;;-49
2020/10/02 10:11:19;;;;;;;11.45;2.11;;;;;;;20.99;64.60;98051.17;;;;-51
2020/10/02 10:14:19;;;;;;;5.71;1.69;;;;;;;20.99;64.62;98051.42;;;;-50
2020/10/02 10:17:19;;;;;;;5.30;1.61;;;;;;;20.99;64.62;98047.68;;;;-53
2020/10/02 10:20:20;;;;;;;5.24;1.59;;;;;;;20.99;64.61;98041.56;;;;-53
2020/10/02 10:23:19;;;;;;;4.09;1.73;;;;;;;21.01;64.59;98038.77;;;;-53
2020/10/02 10:26:19;;;;;;;5.09;1.80;;;;;;;21.01;64.57;98038.52;;;;-53
2020/10/02 10:29:19;;;;;;;4.10;1.65;;;;;;;21.01;64.63;98033.53;;;;-54
2020/10/02 10:32:19;;;;;;;3.37;1.70;;;;;;;21.01;64.61;98028.22;;;;-46
2020/10/02 10:35:20;;;;;;;2.95;1.70;;;;;;;21.01;64.63;98027.41;;;;-48
2020/10/02 10:38:19;;;;;;;4.01;1.60;;;;;;;21.01;64.67;98024.77;;;;-49
2020/10/02 10:41:19;;;;;;;4.50;1.43;;;;;;;21.00;64.61;98014.53;;;;-49
2020/10/02 10:44:19;;;;;;;6.44;1.61;;;;;;;20.99;64.47;98008.18;;;;-49
2020/10/02 10:47:19;;;;;;;4.12;1.76;;;;;;;20.98;64.48;98008.42;;;;-61
2020/10/02 10:50:21;;;;;;;3.63;1.42;;;;;;;20.98;64.43;98005.33;;;;-61
2020/10/02 10:53:19;;;;;;;3.39;1.73;;;;;;;20.96;64.43;97991.06;;;;-60
2020/10/02 10:56:19;;;;;;;4.15;1.50;;;;;;;20.96;64.36;97985.94;;;;-61
2020/10/02 10:59:19;;;;;;;5.07;1.59;;;;;;;20.94;64.36;97973.23;;;;-60
2020/10/02 11:02:19;;;;;;;5.72;1.61;;;;;;;20.93;64.33;97963.32;;;;-61
2020/10/02 11:05:19;;;;;;;4.01;1.75;;;;;;;20.93;64.33;97955.02;;;;-61
2020/10/02 11:08:19;;;;;;;2.81;1.50;;;;;;;20.92;64.29;97953.70;;;;-61
2020/10/02 11:11:21;;;;;;;5.01;1.71;;;;;;;20.91;64.29;97958.84;;;;-61
2020/10/02 11:14:19;;;;;;;2.31;1.52;;;;;;;20.91;64.27;97954.48;;;;-61
2020/10/02 11:17:20;;;;;;;2.68;1.53;;;;;;;20.90;64.28;97955.57;;;;-61
2020/10/02 11:20:20;;;;;;;3.01;1.50;;;;;;;20.89;64.25;97958.17;;;;-61
2020/10/02 11:23:19;;;;;;;2.29;1.49;;;;;;;20.89;64.26;97956.41;;;;-60
2020/10/02 11:26:19;;;;;;;2.11;1.46;;;;;;;20.88;64.26;97956.23;;;;-52
2020/10/02 11:29:19;;;;;;;3.27;1.51;;;;;;;20.88;64.22;97959.01;;;;-52
2020/10/02 11:32:19;;;;;;;6.31;1.57;;;;;;;20.87;64.36;97957.22;;;;-53
2020/10/02 11:35:23;;;;;;;1.57;1.45;;;;;;;20.88;64.30;97952.33;;;;-55
2020/10/02 11:38:19;;;;;;;3.50;1.56;;;;;;;20.88;64.21;97940.67;;;;-56
2020/10/02 11:41:19;;;;;;;3.68;1.78;;;;;;;20.89;64.27;97939.91;;;;-54
2020/10/02 11:44:19;;;;;;;3.04;1.59;;;;;;;20.90;64.29;97928.16;;;;-54
2020/10/02 11:47:20;;;;;;;3.52;1.78;;;;;;;20.90;64.40;97917.58;;;;-55
2020/10/02 11:50:19;;;;;;;3.24;1.49;;;;;;;20.91;64.39;97910.61;;;;-51
2020/10/02 11:53:19;;;;;;;2.46;1.52;;;;;;;20.91;64.43;97896.03;;;;-53
2020/10/02 11:56:19;;;;;;;2.17;1.51;;;;;;;20.91;64.42;97877.77;;;;-52
2020/10/02 11:59:19;;;;;;;2.95;1.78;;;;;;;20.92;64.39;97864.06;;;;-50
2020/10/02 12:02:20;;;;;;;4.60;1.50;;;;;;;20.93;64.39;97842.48;;;;-52
2020/10/02 12:05:19;;;;;;;3.57;1.69;;;;;;;20.93;64.42;97833.03;;;;-56
2020/10/02 12:08:19;;;;;;;3.83;1.78;;;;;;;20.92;64.31;97827.04;;;;-55
2020/10/02 12:11:19;;;;;;;3.37;1.73;;;;;;;20.91;64.53;97816.16;;;;-52
2020/10/02 12:14:19;;;;;;;2.46;1.45;;;;;;;20.92;64.49;97811.24;;;;-56
2020/10/02 12:17:19;;;;;;;4.63;1.69;;;;;;;20.93;64.38;97809.27;;;;-57
2020/10/02 12:20:19;;;;;;;4.09;1.57;;;;;;;20.92;64.46;97795.94;;;;-57
2020/10/02 12:23:19;;;;;;;4.31;1.64;;;;;;;20.92;64.41;97789.98;;;;-52
2020/10/02 12:26:19;;;;;;;1.89;1.61;;;;;;;20.93;64.51;97787.25;;;;-52
2020/10/02 12:29:19;;;;;;;6.09;1.51;;;;;;;20.93;64.47;97795.14;;;;-53
2020/10/02 12:32:20;;;;;;;2.46;1.59;;;;;;;20.94;64.53;97805.30;;;;-53
2020/10/02 12:35:19;;;;;;;1.96;1.50;;;;;;;20.94;64.51;97798.30;;;;-53
2020/10/02 12:38:19;;;;;;;2.09;1.61;;;;;;;20.92;64.44;97795.69;;;;-54
2020/10/02 12:41:19;;;;;;;3.01;1.54;;;;;;;20.93;64.52;97798.00;;;;-55
2020/10/02 12:44:19;;;;;;;3.83;1.68;;;;;;;20.92;64.50;97795.94;;;;-56
2020/10/02 12:47:19;;;;;;;2.65;1.69;;;;;;;20.92;64.39;97785.75;;;;-57
2020/10/02 12:50:19;;;;;;;5.77;1.78;;;;;;;20.93;64.31;97775.80;;;;-58
2020/10/02 12:53:19;;;;;;;2.05;1.70;;;;;;;20.93;64.25;97761.72;;;;-56
2020/10/02 12:56:19;;;;;;;2.93;1.93;;;;;;;20.92;64.24;97752.37;;;;-54
2020/10/02 12:59:19;;;;;;;2.39;1.61;;;;;;;20.92;64.15;97744.17;;;;-53
2020/10/02 13:02:19;;;;;;;4.89;1.76;;;;;;;20.91;64.22;97743.30;;;;-51
2020/10/02 13:05:19;;;;;;;1.97;1.71;;;;;;;20.91;64.29;97744.63;;;;-53
2020/10/02 13:08:19;;;;;;;2.19;1.70;;;;;;;20.90;64.22;97732.38;;;;-54
2020/10/02 13:11:19;;;;;;;1.96;1.63;;;;;;;20.90;64.25;97731.56;;;;-52
2020/10/02 13:14:19;;;;;;;3.09;1.82;;;;;;;20.90;64.27;97719.61;;;;-58
2020/10/02 13:17:19;;;;;;;3.33;1.92;;;;;;;20.88;64.30;97705.25;;;;-58
2020/10/02 13:20:19;;;;;;;2.85;1.75;;;;;;;20.88;64.20;97703.75;;;;-49
2020/10/02 13:23:21;;;;;;;3.09;1.74;;;;;;;20.86;64.26;97706.41;;;;-57
2020/10/02 13:26:19;;;;;;;2.79;1.78;;;;;;;20.85;64.22;97700.64;;;;-57
2020/10/02 13:29:19;;;;;;;3.57;1.89;;;;;;;20.84;64.18;97692.98;;;;-57
2020/10/02 13:32:19;;;;;;;3.77;1.93;;;;;;;20.82;64.24;97684.67;;;;-57
2020/10/02 13:35:19;;;;;;;4.47;1.89;;;;;;;20.82;64.20;97686.41;;;;-58
2020/10/02 13:38:20;;;;;;;3.55;1.89;;;;;;;20.81;64.30;97674.39;;;;-58
2020/10/02 13:41:19;;;;;;;2.71;1.73;;;;;;;20.82;64.36;97671.75;;;;-48
2020/10/02 13:44:19;;;;;;;2.61;1.85;;;;;;;20.83;64.34;97671.05;;;;-50
2020/10/02 13:47:19;;;;;;;2.73;1.69;;;;;;;20.84;64.40;97662.62;;;;-50
2020/10/02 13:50:19;;;;;;;2.55;1.89;;;;;;;20.85;64.38;97655.59;;;;-48
2020/10/02 13:53:19;;;;;;;4.33;2.01;;;;;;;20.86;64.42;97645.07;;;;-53
2020/10/02 13:56:19;;;;;;;4.36;1.82;;;;;;;20.85;64.44;97633.58;;;;-52
2020/10/02 13:59:20;;;;;;;3.82;2.13;;;;;;;20.85;64.48;97636.45;;;;-50
2020/10/02 14:02:19;;;;;;;2.34;1.88;;;;;;;20.85;64.51;97641.72;;;;-54
2020/10/02 14:05:19;;;;;;;2.17;1.80;;;;;;;20.86;64.55;97645.27;;;;-48
2020/10/02 14:08:19;;;;;;;2.07;1.81;;;;;;;20.86;64.56;97640.72;;;;-52
2020/10/02 14:11:19;;;;;;;3.33;1.87;;;;;;;20.87;64.59;97634.27;;;;-54
2020/10/02 14:14:19;;;;;;;8.63;2.11;;;;;;;20.87;64.54;97635.89;;;;-55
2020/10/02 14:17:19;;;;;;;9.74;2.24;;;;;;;20.87;64.55;97638.02;;;;-52
2020/10/02 14:20:19;;;;;;;7.55;2.24;;;;;;;20.88;64.59;97636.16;;;;-60
2020/10/02 14:23:19;;;;;;;13.88;2.54;;;;;;;20.90;64.78;97627.54;;;;-57
2020/10/02 14:26:19;;;;;;;13.00;2.64;;;;;;;20.91;64.69;97633.59;;;;-60
2020/10/02 14:29:19;;;;;;;7.10;2.19;;;;;;;20.92;64.68;97633.23;;;;-57
2020/10/02 14:32:19;;;;;;;6.99;2.18;;;;;;;20.93;64.81;97634.64;;;;-47
2020/10/02 14:35:19;;;;;;;9.58;2.45;;;;;;;20.92;64.84;97635.98;;;;-53
2020/10/02 14:38:19;;;;;;;7.49;2.33;;;;;;;20.93;64.91;97648.48;;;;-51
2020/10/02 14:41:19;;;;;;;4.36;2.11;;;;;;;20.93;64.86;97650.44;;;;-51
2020/10/02 14:44:19;;;;;;;7.33;2.40;;;;;;;20.92;64.85;97648.34;;;;-51
2020/10/02 14:47:19;;;;;;;10.48;2.57;;;;;;;20.91;64.80;97642.55;;;;-52
2020/10/02 14:50:20;;;;;;;8.27;2.37;;;;;;;20.89;64.88;97632.75;;;;-52
2020/10/02 14:53:19;;;;;;;4.85;2.23;;;;;;;20.90;64.92;97628.77;;;;-57
2020/10/02 14:56:20;;;;;;;9.85;2.38;;;;;;;20.89;64.98;97623.89;;;;-63
2020/10/02 14:59:19;;;;;;;7.82;2.17;;;;;;;20.88;64.93;97617.67;;;;-59
2020/10/02 15:02:19;;;;;;;9.80;2.49;;;;;;;20.89;64.92;97620.70;;;;-62
2020/10/02 15:05:19;;;;;;;7.69;2.33;;;;;;;20.88;64.92;97614.87;;;;-49
2020/10/02 15:08:19;;;;;;;5.09;2.27;;;;;;;20.88;64.91;97608.26;;;;-49
2020/10/02 15:11:19;;;;;;;5.99;2.36;;;;;;;20.89;64.90;97605.53;;;;-50
2020/10/02 15:14:19;;;;;;;5.89;2.12;;;;;;;20.88;64.94;97599.47;;;;-59
2020/10/02 15:17:19;;;;;;;4.31;2.17;;;;;;;20.88;64.96;97588.70;;;;-58
2020/10/02 15:20:19;;;;;;;5.82;2.33;;;;;;;20.88;64.94;97570.39;;;;-58
2020/10/02 15:26:35;;;;;;;5.47;2.02;;;;;;;20.88;64.99;97536.95;;;;-43
2020/10/02 15:29:35;;;;;;;5.43;2.09;;;;;;;20.88;65.10;97536.24;;;;-46
2020/10/02 15:32:36;;;;;;;6.55;2.29;;;;;;;20.88;65.12;97522.77;;;;-49
2020/10/02 15:35:35;;;;;;;4.85;2.08;;;;;;;20.88;65.09;97513.16;;;;-45
2020/10/02 15:38:35;;;;;;;5.25;2.21;;;;;;;20.89;65.08;97514.92;;;;-44
2020/10/02 15:41:35;;;;;;;4.11;2.25;;;;;;;20.89;65.08;97521.53;;;;-43
2020/10/02 15:44:35;;;;;;;3.03;2.14;;;;;;;20.89;65.06;97531.85;;;;-45
2020/10/02 15:47:35;;;;;;;3.61;1.99;;;;;;;20.89;65.12;97526.55;;;;-50
2020/10/02 15:50:35;;;;;;;3.31;2.17;;;;;;;20.90;65.16;97537.61;;;;-51
2020/10/02 15:53:35;;;;;;;4.13;2.06;;;;;;;20.89;65.13;97541.91;;;;-48
2020/10/02 15:56:35;;;;;;;2.81;2.01;;;;;;;20.88;65.19;97542.14;;;;-51
2020/10/02 15:59:35;;;;;;;5.18;1.99;;;;;;;20.90;65.21;97535.56;;;;-51
2020/10/02 16:02:35;;;;;;;4.23;2.09;;;;;;;20.91;65.24;97536.16;;;;-51
2020/10/02 16:05:35;;;;;;;3.68;2.20;;;;;;;20.92;65.26;97533.52;;;;-55
2020/10/02 16:08:35;;;;;;;3.25;2.07;;;;;;;20.92;65.36;97532.05;;;;-53
2020/10/02 16:11:35;;;;;;;4.21;2.20;;;;;;;20.92;65.35;97541.75;;;;-57
2020/10/02 16:14:35;;;;;;;3.83;2.00;;;;;;;20.93;65.38;97540.32;;;;-59
2020/10/02 16:17:35;;;;;;;4.01;2.28;;;;;;;20.93;65.46;97542.63;;;;-58
2020/10/02 16:20:35;;;;;;;4.09;2.02;;;;;;;20.93;65.64;97542.02;;;;-56
2020/10/02 16:23:35;;;;;;;6.93;2.21;;;;;;;20.92;65.73;97549.21;;;;-60
2020/10/02 16:26:35;;;;;;;8.21;2.21;;;;;;;20.89;65.61;97549.11;;;;-59
2020/10/02 16:29:35;;;;;;;3.49;1.96;;;;;;;20.89;65.49;97543.50;;;;-60
2020/10/02 16:32:35;;;;;;;4.87;2.07;;;;;;;20.88;65.37;97542.66;;;;-60
2020/10/02 16:35:35;;;;;;;3.90;2.17;;;;;;;20.87;65.37;97547.58;;;;-60
2020/10/02 16:38:35;;;;;;;5.11;2.29;;;;;;;20.86;65.30;97547.21;;;;-60
2020/10/02 16:41:35;;;;;;;4.61;2.15;;;;;;;20.84;65.27;97536.89;;;;-59
2020/10/02 16:44:35;;;;;;;3.28;2.07;;;;;;;20.84;65.21;97531.45;;;;-59
2020/10/02 16:47:35;;;;;;;4.05;2.23;;;;;;;20.83;65.19;97539.23;;;;-60
2020/10/02 16:50:35;;;;;;;3.29;2.08;;;;;;;20.82;65.21;97552.13;;;;-60
2020/10/02 16:53:35;;;;;;;3.60;2.00;;;;;;;20.82;65.15;97545.97;;;;-60
2020/10/02 16:56:35;;;;;;;2.92;2.23;;;;;;;20.81;65.09;97548.50;;;;-60
2020/10/02 16:59:35;;;;;;;2.59;1.96;;;;;;;20.80;65.12;97556.13;;;;-60
2020/10/02 17:02:35;;;;;;;3.91;2.21;;;;;;;20.79;65.07;97563.64;;;;-47
2020/10/02 17:05:35;;;;;;;4.73;2.09;;;;;;;20.78;65.07;97570.27;;;;-48
2020/10/02 17:08:35;;;;;;;4.65;2.19;;;;;;;20.78;65.07;97572.42;;;;-48